Portada
METAR-TAF:

METAR-TAF

Aeropuertos :

Aruba, Aruba

Aeropuerto Internacional Reina Beatrix

latitud: 12-30N, longitud: 070-01W, altitud: 18 m

Observación

El informe se hizo hace 1 hora y 17 minutos, a las 14:00 UTC
Viento 6 kt del este
Temperatura 29°C
Humedad 70%
Presión 1014 hPa
Visibilidad 10 km o más
Nubes dispersas a una altura de 2200 ft

METAR: TNCA 111400Z 08006KT 9999 SCT022 29/23 Q1013 A2993 NOSIG

Hora: 11:17 (15:17 UTC)

Pronóstico

El informe se hizo hace 5 horas y 17 minutos, a las 10:00 UTC
Pronóstico válido del 11 a las 12 UTC al 12 a las 12 UTC
Viento 7 kt del este-noreste
Visibilidad 10 km o más
Escasas nubes a una altura de 2500 ft
Temporalmente
del 11 a las 12 UTC al 11 a las 15 UTC
Cielo nuboso a una altura de 1800 ft

TAF: TNCA 111000Z 1112/1212 06007KT 9999 FEW025 TEMPO 1112/1115 BKN018

Observaciones y pronósticos meteorológicos de más de 4000 aeropuertos (mensajes METAR y TAF).

Los puntos amarillos y rojos representan las estaciones disponibles.

Ponga el ratón en el punto deseado para ver el nombre de la estación.

Haga clic para ver las observaciones y los pronósticos meteorológicos.

Para cambiar el mapa : haga clic en los botones verdes con una cruz de color negro para hacer un zoom, en el botón verde con un guión para alejar o en las flechas verdes para mapas adyacentes.


METAR-TAF: